Time;durP1;ratioP1;P1;durP2;ratioP2;P2;SDS_P1;SDS_P2;PMS_P1;PMS_P2;Temp;Humidity;BMP_temperature;BMP_pressure;BME280_temperature;BME280_humidity;BME280_pressure;Samples;Min_cycle;Max_cycle;Signal;HPM_P1;HPM_P2
2022/03/10 00:01:35;;;;;;;16.77;8.93;;;;;;;;;;5046847;28;20044;-61
2022/03/10 00:04:01;;;;;;;17.67;9.15;;;;;;;;;;5045537;28;20045;-61
2022/03/10 00:06:27;;;;;;;16.30;8.85;;;;;;;;;;5046698;28;20053;-61
2022/03/10 00:08:54;;;;;;;19.67;9.02;;;;;;;;;;5045459;28;20401;-61
2022/03/10 00:11:20;;;;;;;17.73;9.00;;;;;;;;;;5047405;28;20083;-61
2022/03/10 00:13:47;;;;;;;18.15;9.85;;;;;;;;;;5028241;28;20045;-61
2022/03/10 00:16:13;;;;;;;18.40;9.82;;;;;;;;;;5046664;28;20124;-61
2022/03/10 00:18:39;;;;;;;20.17;9.68;;;;;;;;;;5046486;28;20402;-61
2022/03/10 00:21:06;;;;;;;22.13;10.75;;;;;;;;;;5045368;28;20076;-61
2022/03/10 00:23:32;;;;;;;17.25;9.55;;;;;;;;;;5045651;28;20112;-61
2022/03/10 00:25:58;;;;;;;18.75;10.40;;;;;;;;;;5046326;28;20040;-62
2022/03/10 00:28:24;;;;;;;18.00;9.98;;;;;;;;;;5045205;28;20071;-61
2022/03/10 00:30:51;;;;;;;19.50;10.07;;;;;;;;;;5046902;28;20087;-61
2022/03/10 00:33:17;;;;;;;20.42;9.85;;;;;;;;;;5046666;28;20045;-61
2022/03/10 00:35:43;;;;;;;23.13;9.65;;;;;;;;;;5046391;28;20498;-61
2022/03/10 00:38:09;;;;;;;19.42;10.75;;;;;;;;;;5045756;28;20073;-61
2022/03/10 00:40:35;;;;;;;19.67;9.80;;;;;;;;;;5045896;28;20045;-61
2022/03/10 00:43:01;;;;;;;20.00;10.60;;;;;;;;;;5046355;28;20041;-61
2022/03/10 00:45:28;;;;;;;18.67;10.48;;;;;;;;;;5045716;28;20073;-62
2022/03/10 00:47:54;;;;;;;18.85;10.05;;;;;;;;;;5046512;28;20048;-60
2022/03/10 00:50:23;;;;;;;19.02;10.32;;;;;;;;;;5046693;28;20120;-61
2022/03/10 00:52:49;;;;;;;20.58;10.23;;;;;;;;;;5045294;28;20076;-61
2022/03/10 00:55:17;;;;;;;19.67;9.95;;;;;;;;;;5045512;28;20049;-61
2022/03/10 00:57:43;;;;;;;17.37;9.43;;;;;;;;;;5046064;28;20230;-61
2022/03/10 01:00:09;;;;;;;21.30;11.10;;;;;;;;;;5046123;28;20417;-61
2022/03/10 01:02:36;;;;;;;18.35;10.25;;;;;;;;;;5045836;28;20045;-61
2022/03/10 01:05:03;;;;;;;21.00;10.75;;;;;;;;;;5046084;28;20060;-61
2022/03/10 01:07:29;;;;;;;20.05;10.70;;;;;;;;;;5045409;28;20094;-61
2022/03/10 01:09:56;;;;;;;24.70;10.73;;;;;;;;;;5045365;28;20049;-61
2022/03/10 01:12:22;;;;;;;24.52;11.35;;;;;;;;;;5046463;28;20489;-61
2022/03/10 01:14:48;;;;;;;21.45;10.50;;;;;;;;;;5045794;28;20470;-61
2022/03/10 01:17:14;;;;;;;20.52;10.55;;;;;;;;;;5045983;28;20045;-61
2022/03/10 01:19:40;;;;;;;20.98;10.00;;;;;;;;;;5045481;28;20045;-61
2022/03/10 01:22:07;;;;;;;21.13;10.68;;;;;;;;;;5045366;28;20124;-61
2022/03/10 01:24:34;;;;;;;20.90;10.30;;;;;;;;;;5044842;28;20526;-61
2022/03/10 01:27:00;;;;;;;20.30;10.38;;;;;;;;;;5045802;28;20048;-61
2022/03/10 01:29:26;;;;;;;20.70;10.65;;;;;;;;;;5045611;28;20070;-62
2022/03/10 01:31:52;;;;;;;21.40;11.02;;;;;;;;;;5046281;28;20077;-61
2022/03/10 01:34:19;;;;;;;24.20;11.15;;;;;;;;;;5045741;28;20384;-61
2022/03/10 01:36:45;;;;;;;26.55;11.07;;;;;;;;;;5045291;28;20048;-61
2022/03/10 01:39:11;;;;;;;22.05;11.52;;;;;;;;;;5044962;28;20668;-61
2022/03/10 01:41:38;;;;;;;23.05;11.40;;;;;;;;;;5045486;28;20041;-61
2022/03/10 01:44:07;;;;;;;21.33;10.63;;;;;;;;;;5045197;28;20061;-61
2022/03/10 01:46:33;;;;;;;;;;;;;;;;;;5045824;28;20056;-61
2022/03/10 01:49:00;;;;;;;21.60;10.90;;;;;;;;;;5045117;28;19920;-61
2022/03/10 01:51:26;;;;;;;21.42;10.40;;;;;;;;;;5045354;28;20045;-61
2022/03/10 01:53:53;;;;;;;22.38;11.90;;;;;;;;;;5044010;28;20491;-61
2022/03/10 01:56:19;;;;;;;20.98;11.30;;;;;;;;;;5045803;28;20048;-61
2022/03/10 01:58:47;;;;;;;22.75;10.88;;;;;;;;;;5043643;28;20055;-61
2022/03/10 02:01:13;;;;;;;25.67;11.20;;;;;;;;;;5045582;28;20091;-60
2022/03/10 02:03:40;;;;;;;20.23;11.25;;;;;;;;;;5044822;28;20139;-60
2022/03/10 02:06:06;;;;;;;19.50;10.02;;;;;;;;;;5045420;28;20072;-60
2022/03/10 02:11:18;;;;;;;19.02;10.48;;;;;;;;;;5045428;28;20045;-60
2022/03/10 02:13:44;;;;;;;35.95;10.35;;;;;;;;;;5044806;28;20041;-59
2022/03/10 02:18:56;;;;;;;22.58;11.32;;;;;;;;;;5045132;28;20487;-61
2022/03/10 02:21:22;;;;;;;22.27;10.98;;;;;;;;;;5045808;28;20048;-60
2022/03/10 02:23:48;;;;;;;23.35;10.18;;;;;;;;;;5044031;28;20037;-60
2022/03/10 02:26:15;;;;;;;19.98;11.05;;;;;;;;;;5045348;28;20333;-60
2022/03/10 02:28:42;;;;;;;21.45;10.77;;;;;;;;;;5044954;28;20060;-60
2022/03/10 02:31:08;;;;;;;19.80;10.73;;;;;;;;;;5046107;28;20098;-61
2022/03/10 02:33:35;;;;;;;19.05;10.43;;;;;;;;;;5048656;28;20500;-61
2022/03/10 02:36:01;;;;;;;22.40;10.80;;;;;;;;;;5048495;28;20040;-61
2022/03/10 02:38:27;;;;;;;20.63;10.80;;;;;;;;;;5046361;28;20088;-61
2022/03/10 02:40:54;;;;;;;19.65;10.18;;;;;;;;;;5049026;28;20044;-61
2022/03/10 02:43:20;;;;;;;19.70;10.65;;;;;;;;;;5048014;28;20045;-61
2022/03/10 02:45:47;;;;;;;23.75;11.70;;;;;;;;;;5048502;28;20125;-61
2022/03/10 02:48:13;;;;;;;19.75;10.77;;;;;;;;;;5048745;28;20045;-61
2022/03/10 02:50:40;;;;;;;23.38;11.25;;;;;;;;;;5048029;28;20060;-61
2022/03/10 02:53:06;;;;;;;23.67;11.10;;;;;;;;;;5046678;28;20126;-61
2022/03/10 02:55:32;;;;;;;26.20;11.88;;;;;;;;;;5048147;28;20045;-61
2022/03/10 02:57:58;;;;;;;21.50;10.98;;;;;;;;;;5048168;28;20041;-62
2022/03/10 03:00:25;;;;;;;21.30;11.45;;;;;;;;;;5048308;28;20130;-62
2022/03/10 03:02:52;;;;;;;21.15;11.10;;;;;;;;;;5048707;28;20135;-61
2022/03/10 03:05:18;;;;;;;21.40;11.38;;;;;;;;;;5047870;28;20091;-61
2022/03/10 03:07:45;;;;;;;22.67;11.50;;;;;;;;;;5047266;28;20094;-61
2022/03/10 03:10:12;;;;;;;26.27;11.13;;;;;;;;;;5048098;28;20398;-61
2022/03/10 03:12:45;;;;;;;25.65;11.10;;;;;;;;;;5047573;28;20029;-61
2022/03/10 03:15:11;;;;;;;23.95;11.40;;;;;;;;;;5048143;28;20041;-61
2022/03/10 03:17:37;;;;;;;22.33;11.98;;;;;;;;;;5046820;28;20536;-61
2022/03/10 03:20:05;;;;;;;23.63;12.00;;;;;;;;;;5046450;28;20088;-61
2022/03/10 03:22:32;;;;;;;22.95;11.73;;;;;;;;;;5045555;28;20056;-62
2022/03/10 03:24:58;;;;;;;25.02;11.77;;;;;;;;;;5047543;28;20449;-61
2022/03/10 03:27:24;;;;;;;22.50;11.18;;;;;;;;;;5047932;28;20437;-61
2022/03/10 03:29:50;;;;;;;23.88;11.30;;;;;;;;;;5047615;28;20207;-61
2022/03/10 03:32:16;;;;;;;24.35;11.25;;;;;;;;;;5047803;28;20503;-61
2022/03/10 03:34:42;;;;;;;24.95;11.10;;;;;;;;;;5047514;28;20103;-61
2022/03/10 03:37:08;;;;;;;21.92;12.05;;;;;;;;;;5047617;28;20123;-61
2022/03/10 03:39:35;;;;;;;26.38;11.80;;;;;;;;;;5046339;28;20689;-61
2022/03/10 03:42:01;;;;;;;22.88;11.30;;;;;;;;;;5047439;28;20399;-61
2022/03/10 03:44:27;;;;;;;32.40;11.85;;;;;;;;;;5046251;28;20040;-61
2022/03/10 03:46:53;;;;;;;20.50;10.55;;;;;;;;;;5048038;28;20079;-61
2022/03/10 03:49:19;;;;;;;21.88;10.77;;;;;;;;;;5047210;28;20048;-61
2022/03/10 03:51:45;;;;;;;29.38;10.82;;;;;;;;;;5047060;28;20099;-61
2022/03/10 03:54:11;;;;;;;25.40;11.70;;;;;;;;;;5046323;28;20118;-61
2022/03/10 03:56:38;;;;;;;18.42;10.27;;;;;;;;;;5047112;28;20080;-61
2022/03/10 03:59:04;;;;;;;20.60;11.13;;;;;;;;;;5046797;28;20691;-61
2022/03/10 04:01:30;;;;;;;23.63;10.48;;;;;;;;;;5045541;28;20483;-61
2022/03/10 04:03:57;;;;;;;22.90;11.20;;;;;;;;;;5046875;28;20463;-61
2022/03/10 04:06:24;;;;;;;21.05;10.95;;;;;;;;;;5046183;28;20064;-61
2022/03/10 04:08:51;;;;;;;21.20;10.75;;;;;;;;;;5045921;28;20059;-61
2022/03/10 04:11:17;;;;;;;23.73;11.40;;;;;;;;;;5046785;28;20473;-61
2022/03/10 04:13:44;;;;;;;20.63;11.02;;;;;;;;;;5045473;28;20056;-61
2022/03/10 04:16:10;;;;;;;20.77;10.60;;;;;;;;;;5046873;28;20148;-61
2022/03/10 04:18:36;;;;;;;18.25;9.70;;;;;;;;;;5046451;28;20037;-61
2022/03/10 04:21:02;;;;;;;24.77;10.98;;;;;;;;;;5046868;28;20096;-61
2022/03/10 04:23:29;;;;;;;22.67;10.70;;;;;;;;;;5045856;28;20498;-61
2022/03/10 04:25:55;;;;;;;20.85;10.65;;;;;;;;;;5046501;28;20045;-61
2022/03/10 04:28:22;;;;;;;25.35;10.85;;;;;;;;;;5047055;28;20044;-61
2022/03/10 04:30:49;;;;;;;19.73;10.95;;;;;;;;;;5046409;28;20458;-61
2022/03/10 04:33:16;;;;;;;27.48;10.30;;;;;;;;;;5046401;28;20053;-61
2022/03/10 04:35:43;;;;;;;19.75;10.32;;;;;;;;;;5046125;28;20041;-62
2022/03/10 04:38:10;;;;;;;22.20;11.45;;;;;;;;;;5045164;28;20041;-62
2022/03/10 04:40:37;;;;;;;18.17;10.00;;;;;;;;;;5046177;28;20102;-62
2022/03/10 04:43:03;;;;;;;21.10;10.48;;;;;;;;;;5046275;28;20052;-62
2022/03/10 04:45:29;;;;;;;19.75;10.38;;;;;;;;;;5045873;28;20049;-62
2022/03/10 04:47:56;;;;;;;18.77;9.88;;;;;;;;;;5046288;28;20128;-61
2022/03/10 04:50:22;;;;;;;21.13;10.65;;;;;;;;;;5046425;28;20047;-61
2022/03/10 04:52:48;;;;;;;19.75;10.30;;;;;;;;;;5045012;28;20076;-61
2022/03/10 04:55:15;;;;;;;22.85;10.32;;;;;;;;;;5045725;28;20110;-62
2022/03/10 04:57:41;;;;;;;21.38;10.38;;;;;;;;;;5045862;28;20093;-62
2022/03/10 05:00:10;;;;;;;20.02;9.32;;;;;;;;;;5046269;28;20140;-61
2022/03/10 05:02:36;;;;;;;;;;;;;;;;;;5046604;28;20057;-61
2022/03/10 05:05:03;;;;;;;20.52;9.93;;;;;;;;;;5045557;28;20408;-61
2022/03/10 05:07:29;;;;;;;19.55;9.93;;;;;;;;;;5045193;28;20045;-61
2022/03/10 05:09:56;;;;;;;20.52;10.20;;;;;;;;;;5045739;28;20040;-61
2022/03/10 05:12:22;;;;;;;21.67;10.25;;;;;;;;;;5046328;28;20052;-61
2022/03/10 05:14:48;;;;;;;19.77;9.98;;;;;;;;;;5045760;28;20241;-61
2022/03/10 05:17:14;;;;;;;19.90;11.18;;;;;;;;;;5045939;28;20040;-61
2022/03/10 05:19:40;;;;;;;19.90;10.23;;;;;;;;;;5045038;28;20037;-61
2022/03/10 05:22:06;;;;;;;21.25;9.82;;;;;;;;;;5045325;28;20048;-61
2022/03/10 05:24:32;;;;;;;21.38;11.10;;;;;;;;;;5045528;28;20052;-61
2022/03/10 05:27:00;;;;;;;20.75;10.10;;;;;;;;;;5045653;28;20041;-61
2022/03/10 05:29:26;;;;;;;29.52;10.80;;;;;;;;;;5045318;28;20481;-61
2022/03/10 05:31:52;;;;;;;18.45;10.07;;;;;;;;;;5045997;28;20055;-61
2022/03/10 05:34:19;;;;;;;26.15;11.15;;;;;;;;;;5044404;28;20073;-61
2022/03/10 05:36:45;;;;;;;23.15;11.23;;;;;;;;;;5044730;28;20325;-61
2022/03/10 05:39:11;;;;;;;20.63;10.60;;;;;;;;;;5044384;28;20106;-62
2022/03/10 05:41:37;;;;;;;21.23;10.65;;;;;;;;;;5043271;28;20041;-61
2022/03/10 05:44:03;;;;;;;21.17;10.32;;;;;;;;;;5045049;28;20080;-61
2022/03/10 05:46:30;;;;;;;21.42;10.60;;;;;;;;;;5045293;28;20045;-61
2022/03/10 05:48:56;;;;;;;26.70;10.55;;;;;;;;;;5045155;28;20045;-61
2022/03/10 05:51:22;;;;;;;23.70;11.15;;;;;;;;;;5046059;28;20041;-61
2022/03/10 05:53:50;;;;;;;22.10;10.38;;;;;;;;;;5044575;28;20045;-61
2022/03/10 05:56:16;;;;;;;20.13;10.10;;;;;;;;;;5045673;28;20120;-61
2022/03/10 05:58:42;;;;;;;21.67;10.98;;;;;;;;;;5045193;28;20045;-61
2022/03/10 06:01:08;;;;;;;20.60;10.98;;;;;;;;;;5044939;28;20049;-61
2022/03/10 06:03:34;;;;;;;23.88;10.65;;;;;;;;;;5044968;28;20678;-61
2022/03/10 06:06:01;;;;;;;19.75;10.35;;;;;;;;;;5045746;28;20387;-61
2022/03/10 06:08:27;;;;;;;25.92;10.73;;;;;;;;;;5048158;28;20055;-62
2022/03/10 06:10:53;;;;;;;19.52;10.70;;;;;;;;;;5049366;28;20120;-61
2022/03/10 06:13:19;;;;;;;25.58;10.93;;;;;;;;;;5046443;28;20041;-61
2022/03/10 06:15:45;;;;;;;20.55;10.15;;;;;;;;;;5046270;28;20063;-61
2022/03/10 06:18:12;;;;;;;22.38;11.15;;;;;;;;;;5036973;28;20041;-61
2022/03/10 06:20:39;;;;;;;20.73;10.90;;;;;;;;;;5042576;28;20044;-61
2022/03/10 06:23:05;;;;;;;20.90;10.85;;;;;;;;;;5043205;28;20034;-61
2022/03/10 06:25:31;;;;;;;21.88;10.48;;;;;;;;;;5036727;28;20045;-61
2022/03/10 06:27:57;;;;;;;23.15;10.48;;;;;;;;;;5036477;28;20089;-61
2022/03/10 06:30:23;;;;;;;19.50;10.10;;;;;;;;;;5051970;28;20045;-61
2022/03/10 06:32:49;;;;;;;26.88;11.07;;;;;;;;;;5066410;28;20040;-61
2022/03/10 06:35:15;;;;;;;30.10;10.25;;;;;;;;;;5037134;28;20040;-60
2022/03/10 06:37:42;;;;;;;22.35;11.18;;;;;;;;;;5046898;28;20041;-60
2022/03/10 06:40:09;;;;;;;23.17;11.73;;;;;;;;;;5035837;28;20033;-61
2022/03/10 06:42:35;;;;;;;26.27;12.10;;;;;;;;;;5047761;28;20037;-61
2022/03/10 06:45:02;;;;;;;23.88;10.82;;;;;;;;;;5046251;28;20049;-61
2022/03/10 06:47:28;;;;;;;25.52;11.30;;;;;;;;;;5042921;28;20044;-61
2022/03/10 06:49:54;;;;;;;24.25;11.13;;;;;;;;;;5048095;28;20130;-60
2022/03/10 06:52:20;;;;;;;24.40;10.23;;;;;;;;;;5039068;28;20513;-61
2022/03/10 06:54:46;;;;;;;24.42;11.25;;;;;;;;;;5044205;28;20045;-61
2022/03/10 06:57:14;;;;;;;22.10;11.32;;;;;;;;;;5046551;28;20041;-61
2022/03/10 06:59:41;;;;;;;25.40;11.90;;;;;;;;;;5047257;28;20044;-61
2022/03/10 07:02:08;;;;;;;20.02;10.60;;;;;;;;;;5047545;28;20498;-61
2022/03/10 07:04:34;;;;;;;22.88;11.15;;;;;;;;;;5047511;28;20041;-61
2022/03/10 07:07:00;;;;;;;23.20;10.60;;;;;;;;;;5047007;28;20402;-61
2022/03/10 07:09:26;;;;;;;26.13;11.30;;;;;;;;;;5046178;28;20546;-61
2022/03/10 07:11:53;;;;;;;21.13;10.80;;;;;;;;;;5043969;28;20057;-60
2022/03/10 07:14:19;;;;;;;27.27;11.27;;;;;;;;;;5046538;28;20080;-61
2022/03/10 07:16:45;;;;;;;22.05;11.38;;;;;;;;;;5046045;28;20036;-61
2022/03/10 07:19:12;;;;;;;23.42;11.15;;;;;;;;;;5047290;28;20048;-61
2022/03/10 07:21:39;;;;;;;20.50;11.20;;;;;;;;;;5046280;28;20033;-61
2022/03/10 07:24:05;;;;;;;25.40;11.35;;;;;;;;;;5047250;28;20138;-61
2022/03/10 07:26:32;;;;;;;22.67;10.90;;;;;;;;;;5046780;28;20041;-61
2022/03/10 07:28:59;;;;;;;19.20;10.82;;;;;;;;;;5046939;28;20041;-61
2022/03/10 07:31:32;;;;;;;26.83;11.90;;;;;;;;;;5047014;28;20508;-62
2022/03/10 07:33:58;;;;;;;26.35;11.75;;;;;;;;;;5047213;28;20457;-61
2022/03/10 07:36:24;;;;;;;21.45;10.60;;;;;;;;;;5046890;28;20090;-61
2022/03/10 07:38:50;;;;;;;21.92;10.75;;;;;;;;;;5046664;28;20044;-61
2022/03/10 07:41:17;;;;;;;23.52;11.85;;;;;;;;;;5046603;28;20041;-61
2022/03/10 07:43:43;;;;;;;21.02;10.68;;;;;;;;;;5045281;28;20115;-61
2022/03/10 07:46:09;;;;;;;23.08;11.68;;;;;;;;;;5046972;28;20045;-61
2022/03/10 07:48:35;;;;;;;18.65;10.13;;;;;;;;;;5046503;28;20055;-61
2022/03/10 07:51:01;;;;;;;25.70;11.27;;;;;;;;;;5046148;28;20087;-62
2022/03/10 07:53:28;;;;;;;21.55;10.63;;;;;;;;;;5045054;28;20037;-63
2022/03/10 07:55:56;;;;;;;21.27;11.02;;;;;;;;;;5046401;28;20068;-62
2022/03/10 07:58:25;;;;;;;25.42;11.80;;;;;;;;;;5044123;28;20045;-62
2022/03/10 08:00:54;;;;;;;20.40;11.15;;;;;;;;;;5044994;28;20379;-62
2022/03/10 08:03:22;;;;;;;20.58;10.90;;;;;;;;;;5046260;28;20083;-62
2022/03/10 08:05:50;;;;;;;22.73;10.93;;;;;;;;;;5045600;28;20044;-62
2022/03/10 08:08:16;;;;;;;21.27;11.20;;;;;;;;;;5045106;28;20036;-62
2022/03/10 08:10:42;;;;;;;24.40;11.57;;;;;;;;;;5043638;28;20048;-62
2022/03/10 08:13:09;;;;;;;19.10;10.65;;;;;;;;;;5045721;28;20115;-62
2022/03/10 08:15:35;;;;;;;23.55;11.25;;;;;;;;;;5045389;28;20074;-62
2022/03/10 08:18:02;;;;;;;21.30;11.52;;;;;;;;;;5045327;28;20041;-61
2022/03/10 08:20:28;;;;;;;20.10;10.90;;;;;;;;;;5045351;28;20053;-62
2022/03/10 08:22:55;;;;;;;21.65;10.88;;;;;;;;;;5045148;28;20048;-61
2022/03/10 08:25:21;;;;;;;27.38;11.48;;;;;;;;;;5045913;28;20095;-62
2022/03/10 08:27:48;;;;;;;21.88;10.95;;;;;;;;;;5044514;28;20045;-61
2022/03/10 08:30:15;;;;;;;21.88;10.93;;;;;;;;;;5044876;28;20047;-62
2022/03/10 08:32:44;;;;;;;23.75;11.48;;;;;;;;;;5045268;28;20041;-62
2022/03/10 08:35:10;;;;;;;21.80;11.32;;;;;;;;;;5045105;28;20050;-62
2022/03/10 08:37:36;;;;;;;20.10;10.98;;;;;;;;;;5044007;28;20506;-61
2022/03/10 08:40:03;;;;;;;23.17;11.85;;;;;;;;;;5043985;28;20041;-62
2022/03/10 08:42:29;;;;;;;23.02;11.45;;;;;;;;;;5044791;28;20075;-62
2022/03/10 08:44:56;;;;;;;20.98;10.30;;;;;;;;;;5044372;28;20088;-62
2022/03/10 08:47:22;;;;;;;21.88;11.43;;;;;;;;;;5045373;28;20471;-62
2022/03/10 08:49:48;;;;;;;19.85;10.75;;;;;;;;;;5041329;28;20041;-61
2022/03/10 08:52:14;;;;;;;21.10;10.98;;;;;;;;;;5043844;28;20048;-61
2022/03/10 08:54:40;;;;;;;23.70;11.85;;;;;;;;;;5044817;28;20044;-61
2022/03/10 08:57:06;;;;;;;20.65;10.88;;;;;;;;;;5044910;28;20087;-61
2022/03/10 08:59:33;;;;;;;23.63;12.13;;;;;;;;;;5044527;28;20044;-61
2022/03/10 09:01:59;;;;;;;21.67;11.90;;;;;;;;;;5044730;28;20037;-61
2022/03/10 09:04:26;;;;;;;22.42;11.48;;;;;;;;;;5044441;28;20517;-61
2022/03/10 09:06:52;;;;;;;18.63;10.30;;;;;;;;;;5044414;28;20119;-61
2022/03/10 09:09:18;;;;;;;21.23;12.23;;;;;;;;;;5044340;28;20053;-61
2022/03/10 09:11:45;;;;;;;21.17;11.02;;;;;;;;;;5044456;28;20340;-61
2022/03/10 09:14:11;;;;;;;20.48;11.57;;;;;;;;;;5044915;28;20052;-61
2022/03/10 09:16:38;;;;;;;21.67;11.13;;;;;;;;;;5044664;28;20041;-61
2022/03/10 09:19:04;;;;;;;21.42;10.80;;;;;;;;;;5043944;28;20075;-61
2022/03/10 09:21:30;;;;;;;26.65;11.55;;;;;;;;;;5043515;28;20056;-62
2022/03/10 09:23:57;;;;;;;22.33;11.30;;;;;;;;;;5044771;28;20045;-62
2022/03/10 09:26:23;;;;;;;21.27;10.77;;;;;;;;;;5044872;28;20049;-62
2022/03/10 09:28:49;;;;;;;29.77;12.25;;;;;;;;;;5042800;28;20045;-61
2022/03/10 09:31:16;;;;;;;19.08;10.38;;;;;;;;;;5045175;28;20421;-61
2022/03/10 09:33:42;;;;;;;19.80;10.73;;;;;;;;;;5044539;28;20072;-61
2022/03/10 09:36:09;;;;;;;24.30;11.55;;;;;;;;;;5044114;28;20506;-62
2022/03/10 09:38:35;;;;;;;22.33;10.93;;;;;;;;;;5043773;28;20045;-62
2022/03/10 09:41:01;;;;;;;22.65;11.07;;;;;;;;;;5046595;28;20432;-62
2022/03/10 09:43:28;;;;;;;20.70;12.00;;;;;;;;;;5047781;28;20407;-62
2022/03/10 09:45:54;;;;;;;20.33;10.80;;;;;;;;;;5049027;28;20041;-62
2022/03/10 09:48:21;;;;;;;21.88;10.98;;;;;;;;;;5048778;28;20033;-62
2022/03/10 09:50:47;;;;;;;24.33;11.43;;;;;;;;;;5048277;28;20033;-62
2022/03/10 09:53:15;;;;;;;21.45;10.63;;;;;;;;;;5047219;28;20048;-62
2022/03/10 09:55:41;;;;;;;20.52;10.77;;;;;;;;;;5048204;28;20095;-62
2022/03/10 09:58:08;;;;;;;21.08;11.63;;;;;;;;;;5048017;28;20041;-62
2022/03/10 10:00:34;;;;;;;22.70;10.80;;;;;;;;;;5047945;28;20489;-62
2022/03/10 10:03:00;;;;;;;20.20;11.10;;;;;;;;;;5048171;28;20063;-62
2022/03/10 10:05:28;;;;;;;23.52;11.02;;;;;;;;;;5048156;28;20078;-62
2022/03/10 10:08:05;;;;;;;40.38;12.45;;;;;;;;;;5047426;28;20041;-62
2022/03/10 10:10:32;;;;;;;22.83;11.68;;;;;;;;;;5047983;28;20045;-63
2022/03/10 10:13:00;;;;;;;21.80;11.50;;;;;;;;;;5047946;28;20048;-63
2022/03/10 10:15:32;;;;;;;24.75;12.75;;;;;;;;;;5047657;28;20045;-63
2022/03/10 10:17:59;;;;;;;22.15;11.75;;;;;;;;;;5047815;28;20063;-62
2022/03/10 10:20:30;;;;;;;21.92;12.02;;;;;;;;;;5047954;28;20049;-63
2022/03/10 10:22:56;;;;;;;24.52;11.77;;;;;;;;;;5046696;28;20124;-62
2022/03/10 10:25:23;;;;;;;20.45;11.32;;;;;;;;;;5047980;28;20049;-62
2022/03/10 10:27:49;;;;;;;24.92;11.35;;;;;;;;;;5047002;28;20033;-62
2022/03/10 10:30:16;;;;;;;23.05;12.25;;;;;;;;;;5046691;28;20568;-62
2022/03/10 10:32:43;;;;;;;27.10;12.70;;;;;;;;;;5047443;28;20029;-62
2022/03/10 10:35:13;;;;;;;24.27;12.50;;;;;;;;;;5047520;28;20483;-61
2022/03/10 10:37:42;;;;;;;22.20;12.07;;;;;;;;;;5046773;28;20049;-61
2022/03/10 10:40:09;;;;;;;26.75;12.82;;;;;;;;;;5047067;28;20048;-62
2022/03/10 10:42:36;;;;;;;25.35;12.60;;;;;;;;;;5046971;28;20671;-61
2022/03/10 10:45:23;;;;;;;24.55;12.18;;;;;;;;;;5046811;28;20543;-61
2022/03/10 10:48:04;;;;;;;24.30;12.40;;;;;;;;;;5046788;28;20052;-61
2022/03/10 10:50:30;;;;;;;31.98;12.75;;;;;;;;;;5046917;28;20044;-62
2022/03/10 10:52:57;;;;;;;21.75;12.18;;;;;;;;;;5043430;28;20040;-62
2022/03/10 10:55:30;;;;;;;26.13;12.52;;;;;;;;;;5046056;28;20052;-61
2022/03/10 10:57:57;;;;;;;21.38;11.77;;;;;;;;;;5043760;28;20450;-62
2022/03/10 11:00:24;;;;;;;27.23;12.68;;;;;;;;;;5065139;28;20131;-62
2022/03/10 11:02:51;;;;;;;22.35;11.43;;;;;;;;;;5051651;28;20049;-62
2022/03/10 11:05:18;;;;;;;24.80;12.57;;;;;;;;;;5056017;28;20050;-62
2022/03/10 11:07:45;;;;;;;26.38;12.57;;;;;;;;;;5056914;28;20117;-62
2022/03/10 11:10:11;;;;;;;26.35;13.13;;;;;;;;;;5067252;28;20084;-62
2022/03/10 11:12:40;;;;;;;24.55;12.25;;;;;;;;;;5066656;28;20102;-63
2022/03/10 11:15:07;;;;;;;25.92;13.02;;;;;;;;;;5049937;28;20119;-63
2022/03/10 11:17:34;;;;;;;24.38;12.40;;;;;;;;;;5045773;28;20041;-63
2022/03/10 11:20:05;;;;;;;28.35;14.07;;;;;;;;;;5043865;28;20049;-63
2022/03/10 11:22:43;;;;;;;25.20;11.88;;;;;;;;;;5044491;28;20052;-63
2022/03/10 11:25:14;;;;;;;23.30;12.88;;;;;;;;;;5064214;28;20045;-63
2022/03/10 11:27:45;;;;;;;25.92;12.80;;;;;;;;;;5063947;28;20090;-63
2022/03/10 11:30:11;;;;;;;26.85;12.25;;;;;;;;;;5063797;28;20052;-63
2022/03/10 11:32:37;;;;;;;26.95;13.65;;;;;;;;;;5066278;28;20040;-64
2022/03/10 11:35:04;;;;;;;28.67;13.38;;;;;;;;;;5066704;28;20476;-63
2022/03/10 11:37:35;;;;;;;26.60;13.00;;;;;;;;;;5053463;28;20033;-63
2022/03/10 11:40:01;;;;;;;28.80;13.70;;;;;;;;;;5045948;28;20126;-63
2022/03/10 11:42:30;;;;;;;24.30;13.82;;;;;;;;;;5045020;28;20571;-63
2022/03/10 11:45:06;;;;;;;24.98;12.65;;;;;;;;;;5044614;28;20048;-63
2022/03/10 11:47:33;;;;;;;26.92;13.23;;;;;;;;;;5046163;28;20131;-62
2022/03/10 11:50:19;;;;;;;25.10;13.27;;;;;;;;;;5045680;28;20475;-62
2022/03/10 11:52:50;;;;;;;22.33;12.38;;;;;;;;;;5045055;28;20253;-61
2022/03/10 11:55:17;;;;;;;28.58;13.15;;;;;;;;;;5046195;28;20057;-61
2022/03/10 11:57:53;;;;;;;24.42;13.40;;;;;;;;;;5045436;28;20055;-62
2022/03/10 12:00:23;;;;;;;23.38;12.70;;;;;;;;;;5046258;28;20049;-61
2022/03/10 12:02:58;;;;;;;28.20;12.73;;;;;;;;;;5043340;28;20052;-61
2022/03/10 12:05:24;;;;;;;24.83;12.68;;;;;;;;;;5038392;28;20077;-62
2022/03/10 12:07:54;;;;;;;28.02;13.55;;;;;;;;;;5040113;28;20664;-61
2022/03/10 12:10:22;;;;;;;27.83;13.90;;;;;;;;;;5041549;28;20103;-61
2022/03/10 12:12:48;;;;;;;24.83;12.88;;;;;;;;;;5039036;28;20495;-61
2022/03/10 12:15:26;;;;;;;24.90;13.13;;;;;;;;;;5039272;28;20113;-62
2022/03/10 12:17:55;;;;;;;26.70;13.65;;;;;;;;;;5040458;28;20098;-61
2022/03/10 12:20:21;;;;;;;29.95;12.98;;;;;;;;;;5041782;28;20049;-61
2022/03/10 12:23:03;;;;;;;32.15;14.05;;;;;;;;;;5040238;28;20063;-62
2022/03/10 12:25:31;;;;;;;26.35;14.15;;;;;;;;;;5039142;28;20041;-62
2022/03/10 12:27:58;;;;;;;26.10;15.25;;;;;;;;;;5040960;28;20111;-62
2022/03/10 12:30:25;;;;;;;26.80;13.48;;;;;;;;;;5040757;28;20100;-62
2022/03/10 12:32:52;;;;;;;26.55;13.32;;;;;;;;;;5040802;28;20139;-62
2022/03/10 12:35:21;;;;;;;26.38;12.68;;;;;;;;;;5041209;28;20053;-62
2022/03/10 12:37:47;;;;;;;;;;;;;;;;;;5040372;28;20241;-61
2022/03/10 12:40:17;;;;;;;27.02;13.02;;;;;;;;;;5041319;28;19944;-61
2022/03/10 12:42:46;;;;;;;30.02;13.43;;;;;;;;;;5037814;28;20045;-62
2022/03/10 12:45:12;;;;;;;25.33;12.98;;;;;;;;;;5037975;28;20057;-62
2022/03/10 12:47:40;;;;;;;29.90;13.18;;;;;;;;;;5040360;28;20110;-62
2022/03/10 12:50:08;;;;;;;28.75;14.50;;;;;;;;;;5040130;28;20050;-62
2022/03/10 12:52:40;;;;;;;27.45;13.23;;;;;;;;;;5039679;28;20056;-63
2022/03/10 12:55:07;;;;;;;25.33;12.93;;;;;;;;;;5043087;28;20048;-63
2022/03/10 12:57:37;;;;;;;24.95;12.95;;;;;;;;;;5044836;28;20554;-63
2022/03/10 13:00:18;;;;;;;24.67;13.45;;;;;;;;;;5044828;28;20048;-63
2022/03/10 13:02:44;;;;;;;27.88;13.75;;;;;;;;;;5043345;28;20479;-62
2022/03/10 13:05:13;;;;;;;27.35;13.95;;;;;;;;;;5044503;28;20055;-62
2022/03/10 13:07:39;;;;;;;25.48;13.55;;;;;;;;;;5042775;28;20048;-62
2022/03/10 13:10:13;;;;;;;26.70;13.30;;;;;;;;;;5044405;28;20553;-63
2022/03/10 13:12:40;;;;;;;28.77;14.07;;;;;;;;;;5044233;28;20141;-62
2022/03/10 13:15:07;;;;;;;26.15;12.85;;;;;;;;;;5044206;28;20044;-63
2022/03/10 13:17:35;;;;;;;29.70;14.95;;;;;;;;;;5042101;28;20048;-63
2022/03/10 13:20:01;;;;;;;24.27;13.25;;;;;;;;;;5043000;28;21186;-63
2022/03/10 13:22:28;;;;;;;29.83;12.80;;;;;;;;;;5044299;28;20087;-63
2022/03/10 13:24:54;;;;;;;29.88;13.30;;;;;;;;;;5044616;28;20033;-63
2022/03/10 13:27:21;;;;;;;27.08;14.60;;;;;;;;;;5035777;28;20140;-63
2022/03/10 13:29:48;;;;;;;28.35;13.00;;;;;;;;;;5021855;28;20119;-63
2022/03/10 13:32:19;;;;;;;25.02;12.95;;;;;;;;;;5037527;28;20479;-64
2022/03/10 13:34:45;;;;;;;30.02;14.27;;;;;;;;;;5041263;28;20522;-64
2022/03/10 13:37:13;;;;;;;29.95;14.75;;;;;;;;;;5041168;28;20048;-63
2022/03/10 13:39:40;;;;;;;29.40;14.50;;;;;;;;;;5041115;28;20098;-63
2022/03/10 13:42:09;;;;;;;26.05;14.20;;;;;;;;;;5038567;28;20379;-64
2022/03/10 13:44:37;;;;;;;30.17;14.20;;;;;;;;;;5040627;28;20061;-63
2022/03/10 13:47:04;;;;;;;27.63;13.77;;;;;;;;;;5040970;28;20056;-63
2022/03/10 13:49:30;;;;;;;27.02;13.20;;;;;;;;;;5041583;28;20049;-63
2022/03/10 13:51:57;;;;;;;24.88;13.50;;;;;;;;;;5039948;28;20045;-63
2022/03/10 13:54:27;;;;;;;27.40;14.40;;;;;;;;;;5058522;28;20045;-63
2022/03/10 13:56:54;;;;;;;25.83;13.65;;;;;;;;;;5043798;28;20051;-63
2022/03/10 13:59:20;;;;;;;21.75;13.20;;;;;;;;;;5042358;28;20045;-64
2022/03/10 14:01:47;;;;;;;26.58;14.45;;;;;;;;;;5041928;28;20131;-63
2022/03/10 14:04:14;;;;;;;25.50;13.18;;;;;;;;;;5040163;28;20063;-63
2022/03/10 14:06:41;;;;;;;29.00;12.98;;;;;;;;;;5039357;28;20048;-63
2022/03/10 14:09:15;;;;;;;29.38;14.10;;;;;;;;;;5040929;28;20132;-64
2022/03/10 14:11:42;;;;;;;22.25;13.52;;;;;;;;;;5041822;28;20136;-63
2022/03/10 14:14:08;;;;;;;28.13;14.52;;;;;;;;;;5041763;28;20120;-63
2022/03/10 14:16:35;;;;;;;25.30;14.10;;;;;;;;;;5041321;28;20567;-64
2022/03/10 14:19:02;;;;;;;28.48;13.93;;;;;;;;;;5040744;28;20041;-63
2022/03/10 14:21:28;;;;;;;27.30;14.55;;;;;;;;;;5039511;28;20522;-64
2022/03/10 14:23:56;;;;;;;24.40;13.73;;;;;;;;;;5041559;28;20453;-63